IGO796V VECC-VTBS
Flight info
| Callsign | IGO796V |
|---|---|
| Flight time | N/A |
| Altitude | 37000 |
| Route | DOPID2C DOPID P646 TARED DCT WILLA WILLA1C |
| Aircraft | A320/M-SDE3FGHIRWY/LB1 |
Departure
| Time | 2026-04-24 19:26 |
|---|---|
| Airport | Netaji Subhash Chandra Bose International Airport (VECC) |
Arrival
| Time | N/A |
|---|---|
| Airport | Suvarnabhumi Airport (VTBS) |
| Time | Latitude | Longitude | Altitude | Speed | Heading |
|---|---|---|---|---|---|
| 2026-04-24 18:54 | 22.64343 | 88.44066 | 29 ft | 0 kts | 277° |
| 2026-04-24 19:16 | 22.64342 | 88.44070 | 29 ft | 3 kts | 277° |
| 2026-04-24 19:17 | 22.64338 | 88.44098 | 29 ft | 4 kts | 277° |
| 2026-04-24 19:17 | 22.64335 | 88.44127 | 29 ft | 4 kts | 281° |
| 2026-04-24 19:17 | 22.64325 | 88.44152 | 29 ft | 4 kts | 324° |
| 2026-04-24 19:17 | 22.64306 | 88.44159 | 29 ft | 1 kts | 6° |
| 2026-04-24 19:21 | 22.64313 | 88.44159 | 29 ft | 6 kts | 5° |
| 2026-04-24 19:21 | 22.64400 | 88.44165 | 29 ft | 18 kts | 4° |
| 2026-04-24 19:21 | 22.64556 | 88.44174 | 29 ft | 26 kts | 10° |
| 2026-04-24 19:21 | 22.64735 | 88.44199 | 29 ft | 27 kts | 7° |
| 2026-04-24 19:22 | 22.64857 | 88.44228 | 29 ft | 26 kts | 11° |
| 2026-04-24 19:22 | 22.65062 | 88.44264 | 29 ft | 5 kts | 56° |
| 2026-04-24 19:22 | 22.65063 | 88.44265 | 28 ft | 0 kts | 57° |
| 2026-04-24 19:23 | 22.65078 | 88.44174 | 31 ft | 1 kts | 302° |
| 2026-04-24 19:23 | 22.65082 | 88.44169 | 29 ft | 0 kts | 309° |
| 2026-04-24 19:23 | 22.65578 | 88.44331 | 29 ft | 2 kts | 278° |
| 2026-04-24 19:23 | 22.65614 | 88.44311 | 29 ft | 11 kts | 7° |
| 2026-04-24 19:24 | 22.65664 | 88.44402 | 29 ft | 21 kts | 36° |
| 2026-04-24 19:24 | 22.65834 | 88.44490 | 29 ft | 30 kts | 33° |
| 2026-04-24 19:24 | 22.66015 | 88.44615 | 29 ft | 34 kts | 31° |
| 2026-04-24 19:24 | 22.66241 | 88.44650 | 27 ft | 33 kts | 5° |
| 2026-04-24 19:25 | 22.66464 | 88.44706 | 27 ft | 33 kts | 27° |
| 2026-04-24 19:25 | 22.66604 | 88.44818 | 27 ft | 10 kts | 39° |
| 2026-04-24 19:25 | 22.66626 | 88.44876 | 27 ft | 12 kts | 102° |
| 2026-04-24 19:25 | 22.66524 | 88.44912 | 29 ft | 21 kts | 186° |
| 2026-04-24 19:26 | 22.66243 | 88.44880 | 28 ft | 79 kts | 190° |
| 2026-04-24 19:26 | 22.65442 | 88.44789 | 30 ft | 153 kts | 187° |
| 2026-04-24 19:26 | 22.64289 | 88.44655 | 584 ft | 170 kts | 185° |
| 2026-04-24 19:26 | 22.63071 | 88.44585 | 1397 ft | 180 kts | 182° |
| 2026-04-24 19:27 | 22.61786 | 88.44702 | 2171 ft | 194 kts | 158° |
| 2026-04-24 19:27 | 22.60746 | 88.45673 | 2970 ft | 206 kts | 126° |
| 2026-04-24 19:27 | 22.59982 | 88.47003 | 3805 ft | 210 kts | 120° |
| 2026-04-24 19:27 | 22.59261 | 88.48391 | 4572 ft | 212 kts | 119° |
| 2026-04-24 19:28 | 22.58542 | 88.49774 | 5222 ft | 211 kts | 119° |
| 2026-04-24 19:28 | 22.57820 | 88.51166 | 5794 ft | 213 kts | 119° |
| 2026-04-24 19:28 | 22.57075 | 88.52603 | 5974 ft | 229 kts | 119° |
| 2026-04-24 19:28 | 22.56277 | 88.54140 | 5837 ft | 236 kts | 119° |
| 2026-04-24 19:29 | 22.54501 | 88.57101 | 5200 ft | 234 kts | 130° |
| 2026-04-24 19:29 | 22.53434 | 88.58421 | 5016 ft | 233 kts | 132° |
| 2026-04-24 19:29 | 22.52367 | 88.59729 | 5016 ft | 234 kts | 131° |
| 2026-04-24 19:30 | 22.51310 | 88.61075 | 5014 ft | 234 kts | 130° |
| 2026-04-24 19:30 | 22.50282 | 88.62444 | 5015 ft | 234 kts | 129° |
| 2026-04-24 19:30 | 22.49273 | 88.63829 | 5014 ft | 234 kts | 128° |
| 2026-04-24 19:30 | 22.48277 | 88.65223 | 5174 ft | 235 kts | 128° |
| 2026-04-24 19:31 | 22.47283 | 88.66633 | 5422 ft | 236 kts | 127° |
| 2026-04-24 19:31 | 22.46262 | 88.68018 | 5664 ft | 236 kts | 134° |
| 2026-04-24 19:31 | 22.45018 | 88.69149 | 5899 ft | 237 kts | 147° |
| 2026-04-24 19:31 | 22.43554 | 88.69979 | 5995 ft | 237 kts | 156° |
| 2026-04-24 19:32 | 22.42048 | 88.70712 | 6013 ft | 237 kts | 156° |
| 2026-04-24 19:32 | 22.40547 | 88.71454 | 6015 ft | 237 kts | 156° |
| 2026-04-24 19:32 | 22.39048 | 88.72198 | 6015 ft | 237 kts | 155° |
| 2026-04-24 19:32 | 22.37568 | 88.72933 | 6016 ft | 237 kts | 156° |
| 2026-04-24 19:33 | 22.36070 | 88.73677 | 6016 ft | 237 kts | 155° |
| 2026-04-24 19:33 | 22.34572 | 88.74420 | 6016 ft | 237 kts | 156° |
| 2026-04-24 19:33 | 22.33069 | 88.75165 | 6016 ft | 237 kts | 156° |
| 2026-04-24 19:33 | 22.32077 | 88.75656 | 6016 ft | 237 kts | 156° |
| 2026-04-24 19:34 | 22.30094 | 88.76637 | 6207 ft | 235 kts | 156° |
| 2026-04-24 19:34 | 22.28595 | 88.77378 | 6911 ft | 239 kts | 156° |
| 2026-04-24 19:34 | 22.27077 | 88.78128 | 7695 ft | 241 kts | 156° |
| 2026-04-24 19:34 | 22.25542 | 88.78885 | 8465 ft | 244 kts | 156° |
| 2026-04-24 19:35 | 22.24514 | 88.79391 | 8979 ft | 246 kts | 156° |
| 2026-04-24 19:35 | 22.22947 | 88.80162 | 9750 ft | 249 kts | 156° |
| 2026-04-24 19:35 | 22.11318 | 88.85888 | 13851 ft | 261 kts | 155° |
| 2026-04-24 19:35 | 21.96727 | 88.93385 | 17214 ft | 284 kts | 157° |
| 2026-04-24 19:36 | 21.94901 | 88.94218 | 17962 ft | 282 kts | 158° |
| 2026-04-24 19:36 | 21.93080 | 88.95029 | 18578 ft | 284 kts | 158° |
| 2026-04-24 19:36 | 21.91267 | 88.95850 | 19146 ft | 287 kts | 157° |
| 2026-04-24 19:36 | 21.89425 | 88.96708 | 19708 ft | 289 kts | 156° |
| 2026-04-24 19:37 | 21.87573 | 88.97594 | 20257 ft | 292 kts | 156° |
| 2026-04-24 19:37 | 21.85711 | 88.98500 | 20786 ft | 295 kts | 156° |
| 2026-04-24 19:37 | 21.83833 | 88.99421 | 21297 ft | 298 kts | 156° |
| 2026-04-24 19:37 | 21.81958 | 89.00343 | 21793 ft | 301 kts | 156° |
| 2026-04-24 19:38 | 21.80047 | 89.01283 | 22286 ft | 304 kts | 156° |
| 2026-04-24 19:38 | 21.78113 | 89.02234 | 22765 ft | 307 kts | 156° |
| 2026-04-24 19:38 | 21.76160 | 89.03191 | 23233 ft | 310 kts | 156° |
| 2026-04-24 19:38 | 21.64107 | 89.08967 | 25256 ft | 311 kts | 157° |
| 2026-04-24 19:39 | 21.62089 | 89.09939 | 25438 ft | 322 kts | 155° |
| 2026-04-24 19:39 | 21.60050 | 89.10973 | 25788 ft | 326 kts | 155° |
| 2026-04-24 19:39 | 21.57992 | 89.12026 | 26178 ft | 329 kts | 155° |
| 2026-04-24 19:39 | 21.55913 | 89.13080 | 26552 ft | 331 kts | 155° |
| 2026-04-24 19:40 | 21.53816 | 89.14129 | 26913 ft | 334 kts | 155° |
| 2026-04-24 19:40 | 21.51686 | 89.15180 | 25879 ft | 340 kts | 161° |
| 2026-04-24 19:40 | 21.49535 | 89.16230 | 26055 ft | 347 kts | 161° |
| 2026-04-24 19:40 | 21.47316 | 89.17310 | 26354 ft | 351 kts | 161° |
| 2026-04-24 19:41 | 21.45094 | 89.18389 | 28099 ft | 349 kts | 155° |
| 2026-04-24 19:41 | 21.42893 | 89.19460 | 28605 ft | 347 kts | 155° |
| 2026-04-24 19:41 | 21.40693 | 89.20533 | 28974 ft | 348 kts | 155° |
| 2026-04-24 19:41 | 21.38481 | 89.21612 | 29294 ft | 350 kts | 155° |
| 2026-04-24 19:42 | 21.36253 | 89.22700 | 29613 ft | 352 kts | 154° |
| 2026-04-24 19:42 | 21.34017 | 89.23793 | 29907 ft | 355 kts | 155° |
| 2026-04-24 19:42 | 21.31707 | 89.24744 | 30210 ft | 357 kts | 162° |
| 2026-04-24 19:42 | 21.29317 | 89.25377 | 30499 ft | 360 kts | 169° |
| 2026-04-24 19:43 | 21.26822 | 89.25690 | 30782 ft | 363 kts | 176° |
| 2026-04-24 19:43 | 21.24295 | 89.25669 | 31073 ft | 365 kts | 184° |
| 2026-04-24 19:43 | 21.21761 | 89.25320 | 31345 ft | 368 kts | 188° |
| 2026-04-24 19:43 | 21.19223 | 89.24894 | 31621 ft | 370 kts | 188° |
| 2026-04-24 19:44 | 21.16668 | 89.24473 | 31901 ft | 372 kts | 188° |
| 2026-04-24 19:44 | 21.14095 | 89.24057 | 32215 ft | 372 kts | 191° |
| 2026-04-24 19:44 | 21.11530 | 89.23651 | 32512 ft | 374 kts | 191° |
| 2026-04-24 19:44 | 21.08981 | 89.23244 | 32922 ft | 371 kts | 187° |
| 2026-04-24 19:45 | 21.06437 | 89.22834 | 33043 ft | 377 kts | 187° |
| 2026-04-24 19:45 | 21.03823 | 89.22409 | 33211 ft | 381 kts | 188° |
| 2026-04-24 19:45 | 21.01185 | 89.21979 | 33438 ft | 384 kts | 187° |
| 2026-04-24 19:45 | 20.98519 | 89.21746 | 33689 ft | 385 kts | 178° |
| 2026-04-24 19:46 | 20.95852 | 89.22008 | 33928 ft | 385 kts | 168° |
| 2026-04-24 19:46 | 20.93257 | 89.22766 | 34149 ft | 386 kts | 158° |
| 2026-04-24 19:46 | 20.90832 | 89.23999 | 34362 ft | 387 kts | 148° |
| 2026-04-24 19:46 | 20.88629 | 89.25660 | 34564 ft | 388 kts | 138° |
| 2026-04-24 19:47 | 20.86715 | 89.27698 | 34759 ft | 389 kts | 129° |
| 2026-04-24 19:47 | 20.85072 | 89.30004 | 34946 ft | 391 kts | 126° |
| 2026-04-24 19:47 | 20.83436 | 89.32345 | 35122 ft | 393 kts | 127° |
| 2026-04-24 19:47 | 20.81790 | 89.34692 | 35311 ft | 395 kts | 127° |
| 2026-04-24 19:48 | 20.80157 | 89.37016 | 35491 ft | 396 kts | 126° |
| 2026-04-24 19:48 | 20.69841 | 89.52395 | 35386 ft | 384 kts | 122° |
| 2026-04-24 19:48 | 20.42253 | 89.84832 | 33587 ft | 368 kts | 133° |
| 2026-04-24 19:49 | 20.39794 | 89.89988 | 33835 ft | 376 kts | 108° |
| 2026-04-24 19:49 | 20.16169 | 90.42860 | 32371 ft | 366 kts | 147° |
| 2026-04-24 19:50 | 19.88159 | 90.55628 | 33472 ft | 343 kts | 139° |
| 2026-04-24 19:50 | 19.86506 | 90.57468 | 33277 ft | 354 kts | 122° |
| 2026-04-24 19:51 | 19.84496 | 90.62230 | 33496 ft | 358 kts | 111° |
| 2026-04-24 19:51 | 19.83569 | 90.64671 | 33620 ft | 363 kts | 112° |
| 2026-04-24 19:52 | 19.53536 | 91.43703 | 31114 ft | 326 kts | 115° |
| 2026-04-24 19:52 | 19.52630 | 91.45948 | 30913 ft | 343 kts | 115° |
| 2026-04-24 19:52 | 19.51334 | 91.48201 | 30410 ft | 368 kts | 136° |
| 2026-04-24 19:52 | 19.49278 | 91.49778 | 30944 ft | 361 kts | 148° |
| 2026-04-24 19:53 | 19.47135 | 91.51165 | 31369 ft | 361 kts | 148° |
| 2026-04-24 19:53 | 19.45017 | 91.52535 | 31691 ft | 362 kts | 148° |
| 2026-04-24 19:53 | 19.40683 | 91.55339 | 32285 ft | 366 kts | 148° |
| 2026-04-24 19:54 | 19.38499 | 91.56752 | 32577 ft | 369 kts | 148° |
| 2026-04-24 19:54 | 19.36303 | 91.58173 | 32864 ft | 371 kts | 148° |
| 2026-04-24 19:54 | 19.34090 | 91.59605 | 33146 ft | 373 kts | 148° |
| 2026-04-24 19:55 | 19.34022 | 91.59649 | 33162 ft | 373 kts | 148° |
| 2026-04-24 19:56 | 19.32584 | 91.60581 | 33334 ft | 375 kts | 148° |
| 2026-04-24 19:56 | 19.26454 | 91.64562 | 33688 ft | 375 kts | 149° |
| 2026-04-24 19:56 | 19.08110 | 91.75533 | 34285 ft | 330 kts | 151° |
| 2026-04-24 19:57 | 19.03840 | 91.77802 | 33725 ft | 350 kts | 151° |
| 2026-04-24 19:57 | 19.02248 | 91.78983 | 33954 ft | 343 kts | 131° |
| 2026-04-24 19:57 | 19.01054 | 91.80848 | 34313 ft | 332 kts | 131° |
| 2026-04-24 19:57 | 18.99991 | 91.83093 | 34005 ft | 346 kts | 111° |
| 2026-04-24 19:58 | 18.99109 | 91.85494 | 34060 ft | 352 kts | 111° |
| 2026-04-24 19:58 | 18.98218 | 91.87929 | 34170 ft | 357 kts | 111° |
| 2026-04-24 19:58 | 18.93951 | 92.37979 | 30595 ft | 379 kts | 58° |
| 2026-04-24 19:58 | 18.95572 | 92.40286 | 30289 ft | 397 kts | 54° |
| 2026-04-24 19:59 | 18.97112 | 92.42732 | 30514 ft | 401 kts | 66° |
| 2026-04-24 19:59 | 18.97737 | 92.45523 | 31346 ft | 381 kts | 92° |
| 2026-04-24 19:59 | 18.97284 | 92.48013 | 32256 ft | 365 kts | 114° |
| 2026-04-24 19:59 | 18.95889 | 92.50218 | 32708 ft | 362 kts | 139° |
| 2026-04-24 20:00 | 18.93830 | 92.51750 | 32961 ft | 365 kts | 147° |
| 2026-04-24 20:00 | 18.91658 | 92.53181 | 33147 ft | 370 kts | 147° |
| 2026-04-24 20:00 | 18.89458 | 92.54632 | 33407 ft | 373 kts | 147° |
| 2026-04-24 20:00 | 18.87251 | 92.56087 | 33685 ft | 375 kts | 147° |
| 2026-04-24 20:01 | 18.85028 | 92.57553 | 33944 ft | 377 kts | 147° |
| 2026-04-24 20:01 | 18.34618 | 92.99529 | 32463 ft | 350 kts | 133° |
| 2026-04-24 20:01 | 18.16321 | 93.22172 | 30575 ft | 374 kts | 105° |
| 2026-04-24 20:02 | 18.15831 | 93.23985 | 30173 ft | 392 kts | 104° |
| 2026-04-24 20:02 | 17.96600 | 93.51260 | 30636 ft | 374 kts | 156° |
| 2026-04-24 20:02 | 17.78186 | 93.56630 | 31114 ft | 354 kts | 179° |
| 2026-04-24 20:02 | 17.75739 | 93.56890 | 31400 ft | 354 kts | 164° |
| 2026-04-24 20:03 | 17.73451 | 93.57838 | 31696 ft | 354 kts | 148° |
| 2026-04-24 20:03 | 17.71505 | 93.59421 | 31973 ft | 355 kts | 131° |
| 2026-04-24 20:03 | 17.69981 | 93.61468 | 32231 ft | 358 kts | 127° |
| 2026-04-24 20:03 | 17.68446 | 93.63547 | 32494 ft | 361 kts | 128° |
| 2026-04-24 20:04 | 17.66877 | 93.65576 | 32785 ft | 364 kts | 129° |
| 2026-04-24 20:04 | 17.65260 | 93.67627 | 33080 ft | 366 kts | 129° |
| 2026-04-24 20:04 | 17.63631 | 93.69694 | 33371 ft | 368 kts | 129° |
| 2026-04-24 20:04 | 17.62000 | 93.71781 | 33653 ft | 370 kts | 128° |
| 2026-04-24 20:05 | 17.60370 | 93.73888 | 33935 ft | 373 kts | 128° |
| 2026-04-24 20:05 | 17.58737 | 93.76017 | 34215 ft | 375 kts | 128° |
| 2026-04-24 20:05 | 17.57103 | 93.78156 | 34474 ft | 377 kts | 128° |
| 2026-04-24 20:05 | 17.55478 | 93.80287 | 34731 ft | 379 kts | 128° |
| 2026-04-24 20:06 | 17.53828 | 93.82451 | 34983 ft | 381 kts | 128° |
| 2026-04-24 20:06 | 17.52162 | 93.84629 | 35224 ft | 383 kts | 128° |
| 2026-04-24 20:06 | 17.50488 | 93.86812 | 35460 ft | 385 kts | 129° |
| 2026-04-24 20:06 | 17.48807 | 93.89004 | 35684 ft | 387 kts | 128° |
| 2026-04-24 20:07 | 17.47688 | 93.90463 | 35823 ft | 388 kts | 128° |
| 2026-04-24 20:07 | 17.45415 | 93.93422 | 36112 ft | 390 kts | 128° |
| 2026-04-24 20:07 | 17.43708 | 93.95642 | 36325 ft | 392 kts | 129° |
| 2026-04-24 20:07 | 17.41991 | 93.97873 | 36502 ft | 394 kts | 128° |
| 2026-04-24 20:08 | 17.40286 | 94.00087 | 36684 ft | 396 kts | 129° |
| 2026-04-24 20:08 | 17.38534 | 94.02362 | 36858 ft | 398 kts | 128° |
| 2026-04-24 20:08 | 17.36815 | 94.04599 | 37022 ft | 399 kts | 128° |
| 2026-04-24 20:08 | 17.35067 | 94.06876 | 37175 ft | 401 kts | 128° |
| 2026-04-24 20:09 | 17.33313 | 94.09160 | 37339 ft | 402 kts | 128° |
| 2026-04-24 20:09 | 17.31556 | 94.11445 | 37483 ft | 404 kts | 128° |
| 2026-04-24 20:09 | 17.29788 | 94.13737 | 37628 ft | 406 kts | 128° |
| 2026-04-24 20:09 | 17.28004 | 94.16049 | 37771 ft | 407 kts | 128° |
| 2026-04-24 20:10 | 17.26223 | 94.18360 | 37906 ft | 408 kts | 128° |
| 2026-04-24 20:10 | 17.24440 | 94.20679 | 38051 ft | 409 kts | 128° |
| 2026-04-24 20:10 | 17.16101 | 94.32136 | 37478 ft | 409 kts | 120° |
| 2026-04-24 20:10 | 17.08580 | 94.59471 | 33904 ft | 372 kts | 89° |
| 2026-04-24 20:11 | 17.11329 | 94.89807 | 27953 ft | 462 kts | 48° |
| 2026-04-24 20:11 | 17.12097 | 94.90496 | 27088 ft | 487 kts | 38° |